sensor_id;sensor_type;location;lat;lon;timestamp;pressure;altitude;pressure_sealevel;temperature;humidity
40908;BME280;51055;59.436;24.778;2022-08-21T00:01:52;101549.69;;;21.32;66.30
40908;BME280;51055;59.436;24.778;2022-08-21T00:04:21;101557.44;;;21.35;65.56
40908;BME280;51055;59.436;24.778;2022-08-21T00:06:57;101552.53;;;21.47;65.08
40908;BME280;51055;59.436;24.778;2022-08-21T00:09:24;101554.72;;;21.51;64.84
40908;BME280;51055;59.436;24.778;2022-08-21T00:11:52;101550.19;;;21.27;65.17
40908;BME280;51055;59.436;24.778;2022-08-21T00:14:20;101549.53;;;21.17;66.17
40908;BME280;51055;59.436;24.778;2022-08-21T00:16:47;101549.03;;;21.06;66.45
40908;BME280;51055;59.436;24.778;2022-08-21T00:19:15;101545.66;;;21.04;66.29
40908;BME280;51055;59.436;24.778;2022-08-21T00:21:43;101551.91;;;20.80;66.84
40908;BME280;51055;59.436;24.778;2022-08-21T00:24:11;101550.38;;;20.86;66.57
40908;BME280;51055;59.436;24.778;2022-08-21T00:26:39;101555.63;;;20.87;67.13
40908;BME280;51055;59.436;24.778;2022-08-21T00:29:07;101550.06;;;20.97;66.32
40908;BME280;51055;59.436;24.778;2022-08-21T00:31:35;101544.66;;;20.97;66.04
40908;BME280;51055;59.436;24.778;2022-08-21T00:34:03;101551.22;;;20.86;66.42
40908;BME280;51055;59.436;24.778;2022-08-21T00:36:31;101548.84;;;20.75;66.99
40908;BME280;51055;59.436;24.778;2022-08-21T00:38:59;101551.72;;;20.90;66.22
40908;BME280;51055;59.436;24.778;2022-08-21T00:41:27;101554.56;;;20.72;66.59
40908;BME280;51055;59.436;24.778;2022-08-21T00:44:09;101546.66;;;20.70;66.91
40908;BME280;51055;59.436;24.778;2022-08-21T00:46:39;101554.59;;;20.80;66.49
40908;BME280;51055;59.436;24.778;2022-08-21T00:49:08;101551.22;;;20.86;66.46
40908;BME280;51055;59.436;24.778;2022-08-21T00:51:42;101549.34;;;20.78;66.71
40908;BME280;51055;59.436;24.778;2022-08-21T00:54:11;101543.13;;;20.86;66.25
40908;BME280;51055;59.436;24.778;2022-08-21T00:56:51;101549.69;;;20.67;66.65
40908;BME280;51055;59.436;24.778;2022-08-21T00:59:23;101541.25;;;20.62;66.66
40908;BME280;51055;59.436;24.778;2022-08-21T01:01:51;101544.44;;;20.50;66.76
40908;BME280;51055;59.436;24.778;2022-08-21T01:04:20;101547.84;;;20.60;66.84
40908;BME280;51055;59.436;24.778;2022-08-21T01:06:48;101543.81;;;20.64;66.11
40908;BME280;51055;59.436;24.778;2022-08-21T01:09:15;101544.66;;;20.64;66.30
40908;BME280;51055;59.436;24.778;2022-08-21T01:11:43;101539.09;;;20.58;66.47
40908;BME280;51055;59.436;24.778;2022-08-21T01:14:13;101542.44;;;20.60;65.90
40908;BME280;51055;59.436;24.778;2022-08-21T01:16:45;101532.81;;;20.41;66.54
40908;BME280;51055;59.436;24.778;2022-08-21T01:19:14;101532.84;;;20.57;66.49
40908;BME280;51055;59.436;24.778;2022-08-21T01:21:44;101538.91;;;20.51;65.97
40908;BME280;51055;59.436;24.778;2022-08-21T01:24:12;101536.66;;;20.39;67.33
40908;BME280;51055;59.436;24.778;2022-08-21T01:26:41;101540.22;;;20.39;66.41
40908;BME280;51055;59.436;24.778;2022-08-21T01:29:44;101545.63;;;20.47;66.81
40908;BME280;51055;59.436;24.778;2022-08-21T01:32:16;101539.72;;;20.52;66.36
40908;BME280;51055;59.436;24.778;2022-08-21T01:34:46;101534.16;;;20.45;66.40
40908;BME280;51055;59.436;24.778;2022-08-21T01:37:14;101535.75;;;20.14;67.85
40908;BME280;51055;59.436;24.778;2022-08-21T01:39:44;101530.84;;;20.09;67.80
40908;BME280;51055;59.436;24.778;2022-08-21T01:42:12;101526.34;;;20.18;67.44
40908;BME280;51055;59.436;24.778;2022-08-21T01:44:41;101524.81;;;20.23;67.55
40908;BME280;51055;59.436;24.778;2022-08-21T01:47:11;101525.56;;;20.34;67.13
40908;BME280;51055;59.436;24.778;2022-08-21T01:49:40;101534.66;;;20.41;66.96
40908;BME280;51055;59.436;24.778;2022-08-21T01:52:08;101527.44;;;20.41;66.83
40908;BME280;51055;59.436;24.778;2022-08-21T01:54:37;101532.66;;;20.51;66.37
40908;BME280;51055;59.436;24.778;2022-08-21T01:57:05;101528.94;;;20.52;66.47
40908;BME280;51055;59.436;24.778;2022-08-21T01:59:33;101532.13;;;20.39;66.47
40908;BME280;51055;59.436;24.778;2022-08-21T02:02:01;101532.59;;;20.26;67.30
40908;BME280;51055;59.436;24.778;2022-08-21T02:04:31;101537.97;;;20.18;68.20
40908;BME280;51055;59.436;24.778;2022-08-21T02:07:00;101535.59;;;20.15;67.99
40908;BME280;51055;59.436;24.778;2022-08-21T02:09:33;101532.06;;;20.15;68.17
40908;BME280;51055;59.436;24.778;2022-08-21T02:12:01;101529.03;;;20.18;67.68
40908;BME280;51055;59.436;24.778;2022-08-21T02:14:29;101541.66;;;20.17;67.93
40908;BME280;51055;59.436;24.778;2022-08-21T02:16:59;101535.78;;;20.22;67.79
40908;BME280;51055;59.436;24.778;2022-08-21T02:19:37;101535.78;;;20.22;67.63
40908;BME280;51055;59.436;24.778;2022-08-21T02:22:08;101535.41;;;20.17;68.60
40908;BME280;51055;59.436;24.778;2022-08-21T02:24:38;101541.28;;;20.12;68.60
40908;BME280;51055;59.436;24.778;2022-08-21T02:27:23;101537.13;;;20.18;68.05
40908;BME280;51055;59.436;24.778;2022-08-21T02:29:57;101534.94;;;20.21;68.05
40908;BME280;51055;59.436;24.778;2022-08-21T02:32:25;101539.44;;;20.13;68.49
40908;BME280;51055;59.436;24.778;2022-08-21T02:34:53;101543.31;;;20.10;68.12
40908;BME280;51055;59.436;24.778;2022-08-21T02:37:22;101547.13;;;20.00;68.77
40908;BME280;51055;59.436;24.778;2022-08-21T02:39:50;101541.03;;;19.90;69.18
40908;BME280;51055;59.436;24.778;2022-08-21T02:42:18;101545.63;;;19.97;69.17
40908;BME280;51055;59.436;24.778;2022-08-21T02:44:46;101543.41;;;19.93;69.39
40908;BME280;51055;59.436;24.778;2022-08-21T02:47:14;101543.56;;;19.91;69.28
40908;BME280;51055;59.436;24.778;2022-08-21T02:49:42;101542.72;;;19.91;69.47
40908;BME280;51055;59.436;24.778;2022-08-21T02:52:09;101539.50;;;19.87;68.97
40908;BME280;51055;59.436;24.778;2022-08-21T02:54:39;101540.81;;;19.75;69.81
40908;BME280;51055;59.436;24.778;2022-08-21T02:57:06;101536.72;;;19.63;70.68
40908;BME280;51055;59.436;24.778;2022-08-21T02:59:35;101538.66;;;19.79;69.89
40908;BME280;51055;59.436;24.778;2022-08-21T03:02:03;101540.16;;;19.73;69.80
40908;BME280;51055;59.436;24.778;2022-08-21T03:04:31;101537.53;;;19.55;70.76
40908;BME280;51055;59.436;24.778;2022-08-21T03:06:59;101536.16;;;19.51;70.66
40908;BME280;51055;59.436;24.778;2022-08-21T03:09:27;101538.06;;;19.59;70.96
40908;BME280;51055;59.436;24.778;2022-08-21T03:11:55;101538.00;;;19.51;70.55
40908;BME280;51055;59.436;24.778;2022-08-21T03:14:22;101538.81;;;19.43;71.46
40908;BME280;51055;59.436;24.778;2022-08-21T03:16:50;101537.41;;;19.65;71.37
40908;BME280;51055;59.436;24.778;2022-08-21T03:19:18;101538.53;;;19.54;71.02
40908;BME280;51055;59.436;24.778;2022-08-21T03:21:45;101536.00;;;19.53;71.54
40908;BME280;51055;59.436;24.778;2022-08-21T03:24:14;101536.31;;;19.50;71.16
40908;BME280;51055;59.436;24.778;2022-08-21T03:26:44;101537.66;;;19.54;71.15
40908;BME280;51055;59.436;24.778;2022-08-21T03:29:12;101540.41;;;19.62;70.90
40908;BME280;51055;59.436;24.778;2022-08-21T03:31:40;101533.19;;;19.62;71.18
40908;BME280;51055;59.436;24.778;2022-08-21T03:34:07;101541.91;;;19.56;70.79
40908;BME280;51055;59.436;24.778;2022-08-21T03:36:35;101533.88;;;19.39;71.95
40908;BME280;51055;59.436;24.778;2022-08-21T03:39:03;101526.88;;;19.46;72.29
40908;BME280;51055;59.436;24.778;2022-08-21T03:41:30;101532.66;;;19.59;71.40
40908;BME280;51055;59.436;24.778;2022-08-21T03:43:58;101530.31;;;19.56;70.68
40908;BME280;51055;59.436;24.778;2022-08-21T03:46:26;101527.09;;;19.35;71.81
40908;BME280;51055;59.436;24.778;2022-08-21T03:48:54;101530.56;;;19.45;72.03
40908;BME280;51055;59.436;24.778;2022-08-21T03:51:23;101532.59;;;19.51;71.22
40908;BME280;51055;59.436;24.778;2022-08-21T03:53:51;101538.25;;;19.40;71.22
40908;BME280;51055;59.436;24.778;2022-08-21T03:56:19;101531.09;;;19.31;71.88
40908;BME280;51055;59.436;24.778;2022-08-21T03:58:46;101536.91;;;19.18;72.87
40908;BME280;51055;59.436;24.778;2022-08-21T04:01:14;101532.28;;;19.28;72.43
40908;BME280;51055;59.436;24.778;2022-08-21T04:03:41;101536.03;;;19.35;72.99
40908;BME280;51055;59.436;24.778;2022-08-21T04:06:09;101533.44;;;19.43;72.15
40908;BME280;51055;59.436;24.778;2022-08-21T04:08:36;101530.31;;;19.38;71.85
40908;BME280;51055;59.436;24.778;2022-08-21T04:11:05;101535.94;;;19.45;71.56
40908;BME280;51055;59.436;24.778;2022-08-21T04:13:33;101534.81;;;19.30;72.26
40908;BME280;51055;59.436;24.778;2022-08-21T04:16:11;101527.22;;;19.25;72.46
40908;BME280;51055;59.436;24.778;2022-08-21T04:18:39;101533.19;;;19.37;72.29
40908;BME280;51055;59.436;24.778;2022-08-21T04:21:09;101535.56;;;19.40;72.15
40908;BME280;51055;59.436;24.778;2022-08-21T04:23:39;101535.63;;;19.48;72.96
40908;BME280;51055;59.436;24.778;2022-08-21T04:26:07;101544.75;;;19.55;71.91
40908;BME280;51055;59.436;24.778;2022-08-21T04:28:35;101540.41;;;19.62;71.39
40908;BME280;51055;59.436;24.778;2022-08-21T04:31:03;101541.91;;;19.56;71.75
40908;BME280;51055;59.436;24.778;2022-08-21T04:33:31;101536.34;;;19.58;71.51
40908;BME280;51055;59.436;24.778;2022-08-21T04:35:59;101532.34;;;19.62;71.43
40908;BME280;51055;59.436;24.778;2022-08-21T04:38:26;101540.75;;;19.59;71.14
40908;BME280;51055;59.436;24.778;2022-08-21T04:41:03;101531.75;;;19.50;71.88
40908;BME280;51055;59.436;24.778;2022-08-21T04:43:33;101530.31;;;19.64;71.73
40908;BME280;51055;59.436;24.778;2022-08-21T04:46:01;101530.13;;;19.57;71.73
40908;BME280;51055;59.436;24.778;2022-08-21T04:48:29;101532.69;;;19.67;71.51
40908;BME280;51055;59.436;24.778;2022-08-21T04:51:05;101529.72;;;19.78;71.24
40908;BME280;51055;59.436;24.778;2022-08-21T04:53:43;101529.06;;;19.84;71.00
40908;BME280;51055;59.436;24.778;2022-08-21T04:56:15;101523.06;;;19.98;70.72
40908;BME280;51055;59.436;24.778;2022-08-21T04:58:47;101522.38;;;19.96;71.41
40908;BME280;51055;59.436;24.778;2022-08-21T05:01:20;101524.81;;;20.15;70.39
40908;BME280;51055;59.436;24.778;2022-08-21T05:03:51;101521.63;;;20.20;70.13
40908;BME280;51055;59.436;24.778;2022-08-21T05:06:21;101514.03;;;20.23;69.21
40908;BME280;51055;59.436;24.778;2022-08-21T05:08:53;101520.25;;;20.16;70.34
40908;BME280;51055;59.436;24.778;2022-08-21T05:11:29;101520.94;;;20.26;69.98
40908;BME280;51055;59.436;24.778;2022-08-21T05:13:58;101523.72;;;20.42;69.74
40908;BME280;51055;59.436;24.778;2022-08-21T05:16:26;101524.41;;;20.44;69.36
40908;BME280;51055;59.436;24.778;2022-08-21T05:19:08;101521.88;;;20.59;69.05
40908;BME280;51055;59.436;24.778;2022-08-21T05:21:37;101520.03;;;20.51;68.69
40908;BME280;51055;59.436;24.778;2022-08-21T05:24:06;101522.06;;;20.73;68.88
40908;BME280;51055;59.436;24.778;2022-08-21T05:26:34;101513.13;;;20.97;67.24
40908;BME280;51055;59.436;24.778;2022-08-21T05:29:15;101519.84;;;21.25;66.73
40908;BME280;51055;59.436;24.778;2022-08-21T05:31:45;101519.97;;;21.40;65.98
40908;BME280;51055;59.436;24.778;2022-08-21T05:34:14;101519.13;;;21.56;65.39
40908;BME280;51055;59.436;24.778;2022-08-21T05:36:45;101519.91;;;21.72;64.45
40908;BME280;51055;59.436;24.778;2022-08-21T05:39:13;101527.41;;;21.93;63.85
40908;BME280;51055;59.436;24.778;2022-08-21T05:41:41;101513.53;;;22.04;63.58
40908;BME280;51055;59.436;24.778;2022-08-21T05:44:09;101513.72;;;22.25;63.25
40908;BME280;51055;59.436;24.778;2022-08-21T05:46:38;101518.34;;;22.48;62.06
40908;BME280;51055;59.436;24.778;2022-08-21T05:49:05;101517.50;;;22.47;61.60
40908;BME280;51055;59.436;24.778;2022-08-21T05:51:33;101517.31;;;22.71;61.16
40908;BME280;51055;59.436;24.778;2022-08-21T05:54:01;101513.59;;;22.72;60.89
40908;BME280;51055;59.436;24.778;2022-08-21T05:56:32;101517.75;;;22.98;60.80
40908;BME280;51055;59.436;24.778;2022-08-21T05:59:00;101515.63;;;22.93;60.02
40908;BME280;51055;59.436;24.778;2022-08-21T06:01:28;101510.22;;;22.93;59.74
40908;BME280;51055;59.436;24.778;2022-08-21T06:03:58;101508.34;;;22.94;60.06
40908;BME280;51055;59.436;24.778;2022-08-21T06:06:27;101512.50;;;23.19;59.00
40908;BME280;51055;59.436;24.778;2022-08-21T06:08:55;101508.78;;;23.34;58.79
40908;BME280;51055;59.436;24.778;2022-08-21T06:11:22;101509.72;;;23.56;57.98
40908;BME280;51055;59.436;24.778;2022-08-21T06:13:55;101516.00;;;23.42;57.43
40908;BME280;51055;59.436;24.778;2022-08-21T06:16:24;101510.47;;;23.50;57.89
40908;BME280;51055;59.436;24.778;2022-08-21T06:18:51;101504.97;;;23.44;58.34
40908;BME280;51055;59.436;24.778;2022-08-21T06:21:19;101497.56;;;23.23;58.85
40908;BME280;51055;59.436;24.778;2022-08-21T06:23:47;101501.06;;;23.75;57.19
40908;BME280;51055;59.436;24.778;2022-08-21T06:26:15;101497.25;;;24.06;55.37
40908;BME280;51055;59.436;24.778;2022-08-21T06:28:43;101496.50;;;24.12;55.87
40908;BME280;51055;59.436;24.778;2022-08-21T06:31:16;101493.22;;;24.16;55.69
40908;BME280;51055;59.436;24.778;2022-08-21T06:33:45;101493.06;;;24.60;53.74
40908;BME280;51055;59.436;24.778;2022-08-21T06:36:13;101501.56;;;25.55;51.77
40908;BME280;51055;59.436;24.778;2022-08-21T06:38:42;101501.47;;;25.83;50.91
40908;BME280;51055;59.436;24.778;2022-08-21T06:41:18;101490.22;;;27.32;46.95
40908;BME280;51055;59.436;24.778;2022-08-21T06:43:53;101485.41;;;27.08;46.99
40908;BME280;51055;59.436;24.778;2022-08-21T06:46:22;101496.50;;;26.80;47.28
40908;BME280;51055;59.436;24.778;2022-08-21T06:48:50;101481.91;;;27.84;45.17
40908;BME280;51055;59.436;24.778;2022-08-21T06:51:17;101486.53;;;27.77;45.09
40908;BME280;51055;59.436;24.778;2022-08-21T06:53:46;101493.91;;;27.64;45.12
40908;BME280;51055;59.436;24.778;2022-08-21T06:56:14;101483.97;;;26.92;46.97
40908;BME280;51055;59.436;24.778;2022-08-21T06:58:41;101491.03;;;26.73;47.73
40908;BME280;51055;59.436;24.778;2022-08-21T07:01:09;101481.44;;;27.10;47.00
40908;BME280;51055;59.436;24.778;2022-08-21T07:03:41;101485.25;;;26.83;47.74
40908;BME280;51055;59.436;24.778;2022-08-21T07:06:10;101474.50;;;27.91;45.43
40908;BME280;51055;59.436;24.778;2022-08-21T07:08:38;101472.97;;;28.02;44.50
40908;BME280;51055;59.436;24.778;2022-08-21T07:11:23;101477.72;;;29.07;42.75
40908;BME280;51055;59.436;24.778;2022-08-21T07:13:52;101477.94;;;28.56;42.79
40908;BME280;51055;59.436;24.778;2022-08-21T07:16:20;101464.25;;;29.48;41.97
40908;BME280;51055;59.436;24.778;2022-08-21T07:18:48;101462.88;;;29.76;40.64
40908;BME280;51055;59.436;24.778;2022-08-21T07:21:16;101459.31;;;29.39;41.51
40908;BME280;51055;59.436;24.778;2022-08-21T07:23:47;101455.63;;;29.33;41.50
40908;BME280;51055;59.436;24.778;2022-08-21T07:26:18;101450.78;;;28.61;42.34
40908;BME280;51055;59.436;24.778;2022-08-21T07:28:48;101456.44;;;29.34;41.18
40908;BME280;51055;59.436;24.778;2022-08-21T07:31:18;101454.53;;;29.89;40.20
40908;BME280;51055;59.436;24.778;2022-08-21T07:33:46;101453.13;;;29.98;39.72
40908;BME280;51055;59.436;24.778;2022-08-21T07:36:14;101454.34;;;30.32;39.59
40908;BME280;51055;59.436;24.778;2022-08-21T07:38:42;101462.56;;;30.32;39.20
40908;BME280;51055;59.436;24.778;2022-08-21T07:41:17;101460.13;;;30.24;39.18
40908;BME280;51055;59.436;24.778;2022-08-21T07:43:45;101471.13;;;30.35;38.96
40908;BME280;51055;59.436;24.778;2022-08-21T07:46:13;101469.91;;;30.50;38.69
40908;BME280;51055;59.436;24.778;2022-08-21T07:48:41;101463.78;;;30.06;38.94
40908;BME280;51055;59.436;24.778;2022-08-21T07:51:12;101467.69;;;29.44;40.61
40908;BME280;51055;59.436;24.778;2022-08-21T07:53:42;101456.75;;;29.44;40.80
40908;BME280;51055;59.436;24.778;2022-08-21T07:56:09;101454.44;;;29.95;39.81
40908;BME280;51055;59.436;24.778;2022-08-21T07:58:38;101450.75;;;30.31;39.45
40908;BME280;51055;59.436;24.778;2022-08-21T08:01:06;101438.88;;;30.37;38.74
40908;BME280;51055;59.436;24.778;2022-08-21T08:03:34;101439.19;;;30.59;38.59
40908;BME280;51055;59.436;24.778;2022-08-21T08:06:02;101433.66;;;30.36;38.97
40908;BME280;51055;59.436;24.778;2022-08-21T08:08:31;101427.47;;;29.99;39.60
40908;BME280;51055;59.436;24.778;2022-08-21T08:11:00;101430.09;;;30.06;39.24
40908;BME280;51055;59.436;24.778;2022-08-21T08:13:28;101433.88;;;30.34;38.97
40908;BME280;51055;59.436;24.778;2022-08-21T08:15:56;101433.88;;;30.34;38.64
40908;BME280;51055;59.436;24.778;2022-08-21T08:18:23;101422.88;;;30.64;38.43
40908;BME280;51055;59.436;24.778;2022-08-21T08:20:51;101432.16;;;30.63;39.38
40908;BME280;51055;59.436;24.778;2022-08-21T08:23:19;101424.31;;;29.66;40.18
40908;BME280;51055;59.436;24.778;2022-08-21T08:25:47;101417.53;;;28.95;42.15
40908;BME280;51055;59.436;24.778;2022-08-21T08:28:15;101416.91;;;28.93;41.87
40908;BME280;51055;59.436;24.778;2022-08-21T08:30:45;101408.31;;;28.72;42.74
40908;BME280;51055;59.436;24.778;2022-08-21T08:33:14;101412.97;;;28.40;43.73
40908;BME280;51055;59.436;24.778;2022-08-21T08:35:42;101417.63;;;27.57;45.22
40908;BME280;51055;59.436;24.778;2022-08-21T08:38:12;101420.06;;;27.72;45.58
40908;BME280;51055;59.436;24.778;2022-08-21T08:43:29;101414.31;;;27.42;45.66
40908;BME280;51055;59.436;24.778;2022-08-21T08:45:58;101404.88;;;27.51;45.61
40908;BME280;51055;59.436;24.778;2022-08-21T08:49:02;101408.38;;;27.65;45.33
40908;BME280;51055;59.436;24.778;2022-08-21T08:51:44;101406.84;;;27.11;45.99
40908;BME280;51055;59.436;24.778;2022-08-21T08:54:19;101408.69;;;27.30;46.13
40908;BME280;51055;59.436;24.778;2022-08-21T08:56:48;101398.41;;;27.32;46.33
40908;BME280;51055;59.436;24.778;2022-08-21T08:59:23;101395.34;;;27.16;46.29
40908;BME280;51055;59.436;24.778;2022-08-21T09:01:52;101388.44;;;27.00;46.74
40908;BME280;51055;59.436;24.778;2022-08-21T09:04:25;101387.16;;;27.16;46.65
40908;BME280;51055;59.436;24.778;2022-08-21T09:15:12;101388.28;;;26.56;47.37
40908;BME280;51055;59.436;24.778;2022-08-21T09:23:23;101381.38;;;26.27;47.77
40908;BME280;51055;59.436;24.778;2022-08-21T09:28:39;101379.50;;;26.21;48.28
40908;BME280;51055;59.436;24.778;2022-08-21T09:31:25;101380.53;;;26.20;48.15
40908;BME280;51055;59.436;24.778;2022-08-21T09:34:29;101371.53;;;26.19;48.06
40908;BME280;51055;59.436;24.778;2022-08-21T09:36:57;101366.28;;;26.24;47.79
40908;BME280;51055;59.436;24.778;2022-08-21T09:39:32;101367.13;;;26.31;47.38
40908;BME280;51055;59.436;24.778;2022-08-21T09:42:09;101366.09;;;26.59;47.24
40908;BME280;51055;59.436;24.778;2022-08-21T09:44:40;101365.84;;;26.73;47.67
40908;BME280;51055;59.436;24.778;2022-08-21T09:47:11;101354.59;;;26.44;46.86
40908;BME280;51055;59.436;24.778;2022-08-21T09:49:42;101349.56;;;26.21;47.11
40908;BME280;51055;59.436;24.778;2022-08-21T09:52:19;101345.59;;;26.30;46.61
40908;BME280;51055;59.436;24.778;2022-08-21T09:54:52;101348.69;;;26.01;47.39
40908;BME280;51055;59.436;24.778;2022-08-21T09:57:26;101346.63;;;26.22;47.22
40908;BME280;51055;59.436;24.778;2022-08-21T10:00:32;101344.53;;;26.31;46.97
40908;BME280;51055;59.436;24.778;2022-08-21T10:03:13;101334.25;;;26.13;47.66
40908;BME280;51055;59.436;24.778;2022-08-21T10:08:28;101331.56;;;26.33;47.50
40908;BME280;51055;59.436;24.778;2022-08-21T10:11:04;101333.88;;;26.36;46.50
40908;BME280;51055;59.436;24.778;2022-08-21T10:14:07;101323.19;;;26.34;46.40
40908;BME280;51055;59.436;24.778;2022-08-21T10:19:35;101324.88;;;26.42;46.67
40908;BME280;51055;59.436;24.778;2022-08-21T10:22:18;101326.97;;;26.47;46.09
40908;BME280;51055;59.436;24.778;2022-08-21T10:28:25;101325.09;;;26.34;46.60
40908;BME280;51055;59.436;24.778;2022-08-21T10:31:08;101326.13;;;26.26;46.56
40908;BME280;51055;59.436;24.778;2022-08-21T10:36:19;101325.72;;;26.29;46.16
40908;BME280;51055;59.436;24.778;2022-08-21T10:42:16;101319.44;;;26.42;46.31
40908;BME280;51055;59.436;24.778;2022-08-21T10:47:18;101315.25;;;26.39;46.11
40908;BME280;51055;59.436;24.778;2022-08-21T10:52:43;101320.66;;;26.13;46.03
40908;BME280;51055;59.436;24.778;2022-08-21T10:55:26;101315.25;;;26.33;45.87
40908;BME280;51055;59.436;24.778;2022-08-21T10:57:58;101310.00;;;26.38;44.97
40908;BME280;51055;59.436;24.778;2022-08-21T11:00:43;101309.56;;;26.54;45.62
40908;BME280;51055;59.436;24.778;2022-08-21T11:03:33;101310.78;;;26.78;44.70
40908;BME280;51055;59.436;24.778;2022-08-21T11:08:41;101303.50;;;26.59;44.74
40908;BME280;51055;59.436;24.778;2022-08-21T11:11:19;101312.28;;;26.61;44.58
40908;BME280;51055;59.436;24.778;2022-08-21T11:13:54;101315.00;;;26.61;45.03
40908;BME280;51055;59.436;24.778;2022-08-21T11:16:29;101314.78;;;26.69;45.18
40908;BME280;51055;59.436;24.778;2022-08-21T11:19:09;101314.53;;;26.77;44.87
40908;BME280;51055;59.436;24.778;2022-08-21T11:21:58;101311.81;;;26.90;44.14
40908;BME280;51055;59.436;24.778;2022-08-21T11:27:44;101314.03;;;27.13;44.49
40908;BME280;51055;59.436;24.778;2022-08-21T11:30:13;101305.47;;;27.09;43.28
40908;BME280;51055;59.436;24.778;2022-08-21T11:40:50;101313.09;;;26.87;43.15
40908;BME280;51055;59.436;24.778;2022-08-21T11:51:41;101319.19;;;26.70;43.74
40908;BME280;51055;59.436;24.778;2022-08-21T11:57:09;101313.31;;;26.73;43.83
40908;BME280;51055;59.436;24.778;2022-08-21T12:02:29;101322.34;;;26.67;43.58
40908;BME280;51055;59.436;24.778;2022-08-21T12:05:03;101314.59;;;26.44;44.27
40908;BME280;51055;59.436;24.778;2022-08-21T12:07:42;101312.31;;;26.21;44.57
40908;BME280;51055;59.436;24.778;2022-08-21T12:10:19;101310.66;;;26.27;44.70
40908;BME280;51055;59.436;24.778;2022-08-21T12:13:06;101314.00;;;26.35;44.81
40908;BME280;51055;59.436;24.778;2022-08-21T12:15:35;101312.53;;;26.26;44.86
40908;BME280;51055;59.436;24.778;2022-08-21T12:18:07;101319.66;;;26.21;44.55
40908;BME280;51055;59.436;24.778;2022-08-21T12:23:30;101303.31;;;25.95;44.97
40908;BME280;51055;59.436;24.778;2022-08-21T12:29:29;101304.56;;;26.31;44.45
40908;BME280;51055;59.436;24.778;2022-08-21T12:32:03;101303.72;;;26.51;43.61
40908;BME280;51055;59.436;24.778;2022-08-21T12:34:36;101302.00;;;26.82;43.24
40908;BME280;51055;59.436;24.778;2022-08-21T12:39:55;101297.50;;;27.14;43.53
40908;BME280;51055;59.436;24.778;2022-08-21T12:42:49;101302.09;;;27.14;43.77
40908;BME280;51055;59.436;24.778;2022-08-21T12:48:07;101304.66;;;27.09;43.11
40908;BME280;51055;59.436;24.778;2022-08-21T12:50:41;101307.22;;;26.84;42.86
40908;BME280;51055;59.436;24.778;2022-08-21T12:55:51;101301.75;;;26.90;43.89
40908;BME280;51055;59.436;24.778;2022-08-21T12:58:24;101300.72;;;26.78;43.57
40908;BME280;51055;59.436;24.778;2022-08-21T13:00:56;101305.56;;;26.76;43.78
40908;BME280;51055;59.436;24.778;2022-08-21T13:03:24;101297.78;;;26.73;44.52
40908;BME280;51055;59.436;24.778;2022-08-21T13:05:52;101294.44;;;26.91;44.63
40908;BME280;51055;59.436;24.778;2022-08-21T13:08:22;101297.72;;;27.06;44.34
40908;BME280;51055;59.436;24.778;2022-08-21T13:11:04;101299.00;;;27.04;43.82
40908;BME280;51055;59.436;24.778;2022-08-21T13:13:42;101293.94;;;27.14;42.76
40908;BME280;51055;59.436;24.778;2022-08-21T13:16:25;101294.75;;;27.14;42.88
40908;BME280;51055;59.436;24.778;2022-08-21T13:19:05;101293.78;;;27.02;43.60
40908;BME280;51055;59.436;24.778;2022-08-21T13:21:39;101289.25;;;26.70;44.47
40908;BME280;51055;59.436;24.778;2022-08-21T13:24:21;101289.47;;;26.55;45.01
40908;BME280;51055;59.436;24.778;2022-08-21T13:27:20;101284.06;;;26.49;45.07
40908;BME280;51055;59.436;24.778;2022-08-21T13:30:11;101286.34;;;26.52;44.92
40908;BME280;51055;59.436;24.778;2022-08-21T13:32:43;101290.34;;;26.42;44.79
40908;BME280;51055;59.436;24.778;2022-08-21T13:35:21;101293.69;;;26.31;45.23
40908;BME280;51055;59.436;24.778;2022-08-21T13:37:50;101287.22;;;26.19;45.00
40908;BME280;51055;59.436;24.778;2022-08-21T13:40:28;101292.22;;;26.16;45.15
40908;BME280;51055;59.436;24.778;2022-08-21T13:42:57;101297.06;;;26.20;45.47
40908;BME280;51055;59.436;24.778;2022-08-21T13:45:32;101287.84;;;26.21;46.04
40908;BME280;51055;59.436;24.778;2022-08-21T13:48:01;101289.94;;;26.32;45.82
40908;BME280;51055;59.436;24.778;2022-08-21T13:50:35;101292.44;;;26.54;45.41
40908;BME280;51055;59.436;24.778;2022-08-21T13:53:07;101286.75;;;26.62;45.07
40908;BME280;51055;59.436;24.778;2022-08-21T13:55:46;101285.03;;;26.67;45.22
40908;BME280;51055;59.436;24.778;2022-08-21T13:58:31;101286.13;;;26.60;45.15
40908;BME280;51055;59.436;24.778;2022-08-21T14:01:00;101283.63;;;26.52;45.55
40908;BME280;51055;59.436;24.778;2022-08-21T14:03:41;101285.09;;;26.48;45.23
40908;BME280;51055;59.436;24.778;2022-08-21T14:06:16;101280.72;;;26.40;45.85
40908;BME280;51055;59.436;24.778;2022-08-21T14:08:51;101271.94;;;26.38;45.69
40908;BME280;51055;59.436;24.778;2022-08-21T14:11:21;101277.78;;;26.28;46.22
40908;BME280;51055;59.436;24.778;2022-08-21T14:14:02;101275.91;;;26.35;46.00
40908;BME280;51055;59.436;24.778;2022-08-21T14:16:54;101277.59;;;26.30;45.51
40908;BME280;51055;59.436;24.778;2022-08-21T14:22:47;101275.72;;;26.17;45.25
40908;BME280;51055;59.436;24.778;2022-08-21T14:25:29;101277.16;;;26.07;46.01
40908;BME280;51055;59.436;24.778;2022-08-21T14:30:46;101272.56;;;26.33;45.58
40908;BME280;51055;59.436;24.778;2022-08-21T14:33:38;101278.84;;;26.47;45.56